Tasman — ZDKI2 — position and weather

sailwx.info

Track history (hours):
 
Tides and Currents Weather Stations Pressure Air Temp Water Temp Dewpoint Dewpoint Depression Visibility Wind Speed Wind Dir Waves Ship Positions

Tasman

Last reported at 2017-Aug-13 01:33 UTC. Time now 2017-Aug-17 21:13 UTC.
Position N 47°11' W 005°02'.

Length 90 m; draft 4 m.

Type: Ship. MMSI: 23617000.

Date/timePositionNaut miles runAvg speedWind from/ knotsBaromVisibWave heightAir tempDewpointWater temp
2017-Aug-13 01:33N 47°11' W 005°02'5612.9
2017-Aug-12 21:13N 48°06' W 005°17'312.7
2017-Aug-12 21:00N 48°09' W 005°18'612.4
2017-Aug-12 20:29N 48°15' W 005°19'1511.4
2017-Aug-12 19:10N 48°30' W 005°24'2 9.8
2017-Aug-12 18:57N 48°32' W 005°22'4 9.4
2017-Aug-12 18:29N 48°35' W 005°18'5 9.5
2017-Aug-12 18:00N 48°39' W 005°13'5 9.2
2017-Aug-12 17:30N 48°42' W 005°09'5 9.6
2017-Aug-12 17:00N 48°45' W 005°03'510.2
2017-Aug-12 16:30N 48°48' W 004°58'3111.8
2017-Aug-12 13:55N 49°08' W 004°22'512.9
2017-Aug-12 13:30N 49°11' W 004°15'612.9
2017-Aug-12 13:00N 49°15' W 004°07'712.7
2017-Aug-12 12:26N 49°20' W 003°59'1711.6
2017-Aug-12 10:57N 49°31' W 003°39'510.6
2017-Aug-12 10:29N 49°34' W 003°33'510.3
2017-Aug-12 10:00N 49°38' W 003°27'510.0
2017-Aug-12 09:30N 49°41' W 003°21'5 9.8
2017-Aug-12 09:01N 49°44' W 003°16'5 9.9
2017-Aug-12 08:31N 49°48' W 003°10'510.2
2017-Aug-12 08:01N 49°51' W 003°05'510.5
2017-Aug-12 07:31N 49°55' W 002°59'610.9
2017-Aug-12 07:00N 49°58' W 002°52'5713.6
2017-Aug-12 02:47N 50°16' W 001°27'40 9.4
2017-Aug-11 22:28N 50°28' W 000°26'4 8.5
2017-Aug-11 22:00N 50°29' W 000°20'5 9.2
2017-Aug-11 21:30N 50°30' W 000°13'5 9.8
2017-Aug-11 20:58N 50°32' W 000°05'510.5
2017-Aug-11 20:30N 50°33' E 000°02'511.0
2017-Aug-11 20:01N 50°34' E 000°11'611.6
2017-Aug-11 19:31N 50°36' E 000°19'611.9
2017-Aug-11 19:00N 50°38' E 000°28'611.9
2017-Aug-11 18:30N 50°40' E 000°37'611.9
2017-Aug-11 18:00N 50°43' E 000°45'611.7
2017-Aug-11 17:31N 50°46' E 000°53'1310.9
2017-Aug-11 16:17N 50°55' E 001°09'310.2
2017-Aug-11 15:57N 50°57' E 001°13'4 9.5
2017-Aug-11 15:30N 50°60' E 001°19'4 9.0
2017-Aug-11 15:00N 51°03' E 001°24'4 8.8
2017-Aug-11 14:31N 51°05' E 001°29'9 9.3
2017-Aug-11 13:30N 51°12' E 001°40'510.2
2017-Aug-11 13:00N 51°15' E 001°46'611.6
2017-Aug-11 12:30N 51°20' E 001°52'612.7
2017-Aug-11 12:00N 51°25' E 001°58'713.7
2017-Aug-11 11:30N 51°30' E 002°05'1314.0
2017-Aug-11 10:36N 51°40' E 002°18'114.0
2017-Aug-11 10:30N 51°41' E 002°19'1014.0
2017-Aug-11 09:47N 51°49' E 002°29'713.8
2017-Aug-11 09:18N 51°54' E 002°35'12911.6
2017-Aug-10 22:10N 53°32' E 004°56'210.4
2017-Aug-10 21:59N 53°32' E 004°59'10 7.7
2017-Aug-10 20:39N 53°30' E 005°16'210.0
2017-Aug-10 20:28N 53°31' E 005°19'5611.6
2017-Aug-10 15:39N 53°27' E 006°53'315.2
2017-Aug-10 15:25N 53°25' E 006°56'614.3
2017-Aug-10 15:01N 53°20' E 007°02'6 8.3
2017-Aug-10 14:18N 53°20' E 007°11'0 0.1
2017-Aug-10 10:11N 53°20' E 007°12'0 0.0
2017-Aug-10 09:48N 53°20' E 007°12'0 0.0
2017-Aug-10 09:20N 53°20' E 007°12'0 0.0
2017-Aug-10 08:49N 53°20' E 007°12'0 0.0
2017-Aug-10 08:17N 53°20' E 007°12'0 0.3
2017-Aug-10 08:00N 53°20' E 007°12'0 0.0
2017-Aug-10 06:55N 53°20' E 007°12'0 0.0
2017-Aug-10 06:28N 53°20' E 007°12'0 0.0
2017-Aug-09 20:10N 53°20' E 007°12'0 0.0
2017-Aug-09 20:00N 53°20' E 007°12'0 0.0
2017-Aug-09 19:28N 53°20' E 007°12'0 0.0
2017-Aug-09 19:00N 53°20' E 007°12'0 0.0
2017-Aug-09 18:20N 53°20' E 007°12'0 0.0
2017-Aug-09 18:00N 53°20' E 007°12'0 0.0
2017-Aug-09 17:30N 53°20' E 007°12'0 0.0
2017-Aug-09 17:00N 53°20' E 007°12'0 0.0
2017-Aug-09 16:30N 53°20' E 007°12'0 0.0
2017-Aug-09 16:00N 53°20' E 007°12'0 0.0
2017-Aug-09 15:30N 53°20' E 007°12'0 0.0
2017-Aug-09 15:00N 53°20' E 007°12'0 0.0
2017-Aug-09 14:30N 53°20' E 007°12'0 0.0
2017-Aug-09 14:00N 53°20' E 007°12'0 0.0
2017-Aug-09 13:30N 53°20' E 007°12'0 0.0
2017-Aug-09 13:00N 53°20' E 007°12'0 0.0
2017-Aug-09 12:30N 53°20' E 007°12'0 0.0
2017-Aug-09 12:00N 53°20' E 007°12'0 0.0
2017-Aug-09 11:30N 53°20' E 007°12'0 0.0
2017-Aug-09 11:00N 53°20' E 007°12'0 0.0
2017-Aug-09 10:30N 53°20' E 007°12'0 0.7
2017-Aug-09 10:00N 53°20' E 007°12'0 0.3
2017-Aug-09 09:21N 53°20' E 007°11'1 4.2
2017-Aug-09 09:00N 53°20' E 007°09'5 9.6
2017-Aug-09 08:30N 53°19' E 007°01'612.7
2017-Aug-09 08:00N 53°25' E 006°56'5112.0
2017-Aug-09 03:48N 53°32' E 005°32'311.5
2017-Aug-09 03:30N 53°31' E 005°26'611.4
2017-Aug-09 03:00N 53°31' E 005°17'611.4
2017-Aug-09 02:31N 53°29' E 005°07'611.2
2017-Aug-09 02:00N 53°28' E 004°58'611.3
2017-Aug-09 01:30N 53°25' E 004°50'1711.0
2017-Aug-08 23:58N 53°12' E 004°34'611.2
2017-Aug-08 23:29N 53°07' E 004°29'511.3
2017-Aug-08 23:00N 53°02' E 004°25'911.2
2017-Aug-08 22:14N 52°55' E 004°17'511.1
2017-Aug-08 21:47N 52°51' E 004°12'6011.9
2017-Aug-08 16:45N 52°07' E 003°05'413.2
2017-Aug-08 16:25N 52°04' E 002°60'613.4
2017-Aug-08 15:57N 51°59' E 002°53'813.7
2017-Aug-08 15:21N 51°53' E 002°44'513.8
2017-Aug-08 14:58N 51°49' E 002°39'1014.0
2017-Aug-08 14:13N 51°40' E 002°29'314.0
2017-Aug-08 14:00N 51°38' E 002°26'714.0
2017-Aug-08 13:29N 51°32' E 002°20'713.8
2017-Aug-08 13:00N 51°26' E 002°14'713.6
2017-Aug-08 12:30N 51°21' E 002°08'713.6
2017-Aug-08 12:00N 51°15' E 002°03'713.9
2017-Aug-08 11:30N 51°10' E 001°55'713.5
2017-Aug-08 11:00N 51°05' E 001°47'713.5
2017-Aug-08 10:30N 51°00' E 001°40'10410.7
2017-Aug-08 00:44N 50°11' W 000°45'210.9
2017-Aug-08 00:30N 50°11' W 000°49'611.3
2017-Aug-07 23:59N 50°09' W 000°57'612.0
2017-Aug-07 23:30N 50°07' W 001°06'612.7
2017-Aug-07 23:00N 50°06' W 001°16'713.4
2017-Aug-07 22:30N 50°04' W 001°26'714.2
2017-Aug-07 22:01N 50°02' W 001°36'714.8
2017-Aug-07 21:30N 50°00' W 001°48'4015.3
2017-Aug-07 18:53N 49°49' W 002°48'10113.0
2017-Aug-07 11:05N 48°58' W 005°03'111.2
2017-Aug-07 11:00N 48°58' W 005°04'611.2
2017-Aug-07 10:29N 48°55' W 005°11'  
2017-Aug-03 20:51N 41°44' W 008°57'2 4.4
2017-Aug-03 20:30N 41°45' W 008°58'5 7.9
2017-Aug-03 19:54N 41°49' W 009°02'1213.1
2017-Aug-03 18:58N 41°59' W 009°12'612.9
2017-Aug-03 18:30N 42°04' W 009°17'1412.6
2017-Aug-03 17:24N 42°15' W 009°28'512.5
2017-Aug-03 17:00N 42°19' W 009°32'712.7
2017-Aug-03 16:29N 42°25' W 009°37'912.7
2017-Aug-03 15:45N 42°32' W 009°44'  
Track history (hours):
 
Tides and Currents Weather Stations Pressure Air Temp Water Temp Dewpoint Dewpoint Depression Visibility Wind Speed Wind Dir Waves Ship Positions

Tasman

Last reported at 2017-Aug-13 01:33 UTC. Time now 2017-Aug-17 21:13 UTC.
Position N 47°11' W 005°02'.

Length 90 m; draft 4 m.

Type: Ship. MMSI: 23617000.

Date/timePositionNaut miles runAvg speedWind from/ knotsBaromVisibWave heightAir tempDewpointWater temp
2017-Aug-13 01:33N 47°11' W 005°02'5612.9
2017-Aug-12 21:13N 48°06' W 005°17'312.7
2017-Aug-12 21:00N 48°09' W 005°18'612.4
2017-Aug-12 20:29N 48°15' W 005°19'1511.4
2017-Aug-12 19:10N 48°30' W 005°24'2 9.8
2017-Aug-12 18:57N 48°32' W 005°22'4 9.4
2017-Aug-12 18:29N 48°35' W 005°18'5 9.5
2017-Aug-12 18:00N 48°39' W 005°13'5 9.2
2017-Aug-12 17:30N 48°42' W 005°09'5 9.6
2017-Aug-12 17:00N 48°45' W 005°03'510.2
2017-Aug-12 16:30N 48°48' W 004°58'3111.8
2017-Aug-12 13:55N 49°08' W 004°22'512.9
2017-Aug-12 13:30N 49°11' W 004°15'612.9
2017-Aug-12 13:00N 49°15' W 004°07'712.7
2017-Aug-12 12:26N 49°20' W 003°59'1711.6
2017-Aug-12 10:57N 49°31' W 003°39'510.6
2017-Aug-12 10:29N 49°34' W 003°33'510.3
2017-Aug-12 10:00N 49°38' W 003°27'510.0
2017-Aug-12 09:30N 49°41' W 003°21'5 9.8
2017-Aug-12 09:01N 49°44' W 003°16'5 9.9
2017-Aug-12 08:31N 49°48' W 003°10'510.2
2017-Aug-12 08:01N 49°51' W 003°05'510.5
2017-Aug-12 07:31N 49°55' W 002°59'610.9
2017-Aug-12 07:00N 49°58' W 002°52'5713.6
2017-Aug-12 02:47N 50°16' W 001°27'40 9.4
2017-Aug-11 22:28N 50°28' W 000°26'4 8.5
2017-Aug-11 22:00N 50°29' W 000°20'5 9.2
2017-Aug-11 21:30N 50°30' W 000°13'5 9.8
2017-Aug-11 20:58N 50°32' W 000°05'510.5
2017-Aug-11 20:30N 50°33' E 000°02'511.0
2017-Aug-11 20:01N 50°34' E 000°11'611.6
2017-Aug-11 19:31N 50°36' E 000°19'611.9
2017-Aug-11 19:00N 50°38' E 000°28'611.9
2017-Aug-11 18:30N 50°40' E 000°37'611.9
2017-Aug-11 18:00N 50°43' E 000°45'611.7
2017-Aug-11 17:31N 50°46' E 000°53'1310.9
2017-Aug-11 16:17N 50°55' E 001°09'310.2
2017-Aug-11 15:57N 50°57' E 001°13'4 9.5
2017-Aug-11 15:30N 50°60' E 001°19'4 9.0
2017-Aug-11 15:00N 51°03' E 001°24'4 8.8
2017-Aug-11 14:31N 51°05' E 001°29'9 9.3
2017-Aug-11 13:30N 51°12' E 001°40'510.2
2017-Aug-11 13:00N 51°15' E 001°46'611.6
2017-Aug-11 12:30N 51°20' E 001°52'612.7
2017-Aug-11 12:00N 51°25' E 001°58'713.7
2017-Aug-11 11:30N 51°30' E 002°05'1314.0
2017-Aug-11 10:36N 51°40' E 002°18'114.0
2017-Aug-11 10:30N 51°41' E 002°19'1014.0
2017-Aug-11 09:47N 51°49' E 002°29'713.8
2017-Aug-11 09:18N 51°54' E 002°35'12911.6
2017-Aug-10 22:10N 53°32' E 004°56'210.4
2017-Aug-10 21:59N 53°32' E 004°59'10 7.7
2017-Aug-10 20:39N 53°30' E 005°16'210.0
2017-Aug-10 20:28N 53°31' E 005°19'5611.6
2017-Aug-10 15:39N 53°27' E 006°53'315.2
2017-Aug-10 15:25N 53°25' E 006°56'614.3
2017-Aug-10 15:01N 53°20' E 007°02'6 8.3
2017-Aug-10 14:18N 53°20' E 007°11'0 0.1
2017-Aug-10 10:11N 53°20' E 007°12'0 0.0
2017-Aug-10 09:48N 53°20' E 007°12'0 0.0
2017-Aug-10 09:20N 53°20' E 007°12'0 0.0
2017-Aug-10 08:49N 53°20' E 007°12'0 0.0
2017-Aug-10 08:17N 53°20' E 007°12'0 0.3
2017-Aug-10 08:00N 53°20' E 007°12'0 0.0
2017-Aug-10 06:55N 53°20' E 007°12'0 0.0
2017-Aug-10 06:28N 53°20' E 007°12'0 0.0
2017-Aug-09 20:10N 53°20' E 007°12'0 0.0
2017-Aug-09 20:00N 53°20' E 007°12'0 0.0
2017-Aug-09 19:28N 53°20' E 007°12'0 0.0
2017-Aug-09 19:00N 53°20' E 007°12'0 0.0
2017-Aug-09 18:20N 53°20' E 007°12'0 0.0
2017-Aug-09 18:00N 53°20' E 007°12'0 0.0
2017-Aug-09 17:30N 53°20' E 007°12'0 0.0
2017-Aug-09 17:00N 53°20' E 007°12'0 0.0
2017-Aug-09 16:30N 53°20' E 007°12'0 0.0
2017-Aug-09 16:00N 53°20' E 007°12'0 0.0
2017-Aug-09 15:30N 53°20' E 007°12'0 0.0
2017-Aug-09 15:00N 53°20' E 007°12'0 0.0
2017-Aug-09 14:30N 53°20' E 007°12'0 0.0
2017-Aug-09 14:00N 53°20' E 007°12'0 0.0
2017-Aug-09 13:30N 53°20' E 007°12'0 0.0
2017-Aug-09 13:00N 53°20' E 007°12'0 0.0
2017-Aug-09 12:30N 53°20' E 007°12'0 0.0
2017-Aug-09 12:00N 53°20' E 007°12'0 0.0
2017-Aug-09 11:30N 53°20' E 007°12'0 0.0
2017-Aug-09 11:00N 53°20' E 007°12'0 0.0
2017-Aug-09 10:30N 53°20' E 007°12'0 0.7
2017-Aug-09 10:00N 53°20' E 007°12'0 0.3
2017-Aug-09 09:21N 53°20' E 007°11'1 4.2
2017-Aug-09 09:00N 53°20' E 007°09'5 9.6
2017-Aug-09 08:30N 53°19' E 007°01'612.7
2017-Aug-09 08:00N 53°25' E 006°56'5112.0
2017-Aug-09 03:48N 53°32' E 005°32'311.5
2017-Aug-09 03:30N 53°31' E 005°26'611.4
2017-Aug-09 03:00N 53°31' E 005°17'611.4
2017-Aug-09 02:31N 53°29' E 005°07'611.2
2017-Aug-09 02:00N 53°28' E 004°58'611.3
2017-Aug-09 01:30N 53°25' E 004°50'1711.0
2017-Aug-08 23:58N 53°12' E 004°34'611.2
2017-Aug-08 23:29N 53°07' E 004°29'511.3
2017-Aug-08 23:00N 53°02' E 004°25'911.2
2017-Aug-08 22:14N 52°55' E 004°17'511.1
2017-Aug-08 21:47N 52°51' E 004°12'6011.9
2017-Aug-08 16:45N 52°07' E 003°05'413.2
2017-Aug-08 16:25N 52°04' E 002°60'613.4
2017-Aug-08 15:57N 51°59' E 002°53'813.7
2017-Aug-08 15:21N 51°53' E 002°44'513.8
2017-Aug-08 14:58N 51°49' E 002°39'1014.0
2017-Aug-08 14:13N 51°40' E 002°29'314.0
2017-Aug-08 14:00N 51°38' E 002°26'714.0
2017-Aug-08 13:29N 51°32' E 002°20'713.8
2017-Aug-08 13:00N 51°26' E 002°14'713.6
2017-Aug-08 12:30N 51°21' E 002°08'713.6
2017-Aug-08 12:00N 51°15' E 002°03'713.9
2017-Aug-08 11:30N 51°10' E 001°55'713.5
2017-Aug-08 11:00N 51°05' E 001°47'713.5
2017-Aug-08 10:30N 51°00' E 001°40'10410.7
2017-Aug-08 00:44N 50°11' W 000°45'210.9
2017-Aug-08 00:30N 50°11' W 000°49'611.3
2017-Aug-07 23:59N 50°09' W 000°57'612.0
2017-Aug-07 23:30N 50°07' W 001°06'612.7
2017-Aug-07 23:00N 50°06' W 001°16'713.4
2017-Aug-07 22:30N 50°04' W 001°26'714.2
2017-Aug-07 22:01N 50°02' W 001°36'714.8
2017-Aug-07 21:30N 50°00' W 001°48'4015.3
2017-Aug-07 18:53N 49°49' W 002°48'10113.0
2017-Aug-07 11:05N 48°58' W 005°03'111.2
2017-Aug-07 11:00N 48°58' W 005°04'611.2
2017-Aug-07 10:29N 48°55' W 005°11'  
2017-Aug-03 20:51N 41°44' W 008°57'2 4.4
2017-Aug-03 20:30N 41°45' W 008°58'5 7.9
2017-Aug-03 19:54N 41°49' W 009°02'1213.1
2017-Aug-03 18:58N 41°59' W 009°12'612.9
2017-Aug-03 18:30N 42°04' W 009°17'1412.6
2017-Aug-03 17:24N 42°15' W 009°28'512.5
2017-Aug-03 17:00N 42°19' W 009°32'712.7
2017-Aug-03 16:29N 42°25' W 009°37'912.7
2017-Aug-03 15:45N 42°32' W 009°44'  

Dump ship's entire track history